Flight Track Log - Related Links

Times and Time Zones

All times are in EDT time to prevent confusion due to time zone crossing. See the N449ND flight status page for this flight to view local times or setup timezone preferences in your user account.

Time Position Orientation Groundspeed Altitude Reporting Facility
EDT Latitude Longitude Course Direction KTS MPH feet Rate Location/Type
Sat 03:46:16 PM 26.7403 -80.0608 15° North 77 89 2,000  Level Miami Center
Sat 03:47:18 PM 26.7642 -80.0675 346° North 79 91 2,400 435 Climbing Miami Center
Sat 03:48:20 PM 26.7864 -80.0736 346° North 81 93 2,900 435 Climbing Miami Center
Sat 03:49:00 PM 26.8774 -80.1604 343° North  Level FlightAware Approximate
Sat 03:49:22 PM 26.8075 -80.0853 334° Northwest 82 94 3,300  Level Miami Center
Sat 03:50:00 PM 26.9130 -80.1728 343° North  Level FlightAware Approximate
Sat 03:50:24 PM 26.8283 -80.1011 326° Northwest 84 97 3,700  Level Miami Center
Sat 03:51:26 PM 26.8494 -80.1136 332° Northwest 84 97 4,100 145 Climbing Miami Center
Sat 03:52:28 PM 26.8758 -80.1294 332° Northwest 103 119 4,000  Descending Miami Center
Sat 03:53:30 PM 26.9025 -80.1422 337° Northwest 106 122 4,100 48 Climbing Miami Center
Sat 03:54:32 PM 26.9286 -80.1603 328° Northwest 106 122 4,100  Level Miami Center
Sat 03:55:34 PM 26.9564 -80.1742 336° Northwest 106 122 4,100  Level Miami Center
Sat 03:56:36 PM 26.9861 -80.1842 343° North 107 123 4,100  Level Miami Center
Sat 03:57:38 PM 27.0153 -80.1967 339° North 109 125 4,100  Level Miami Center
Sat 03:58:40 PM 27.0419 -80.2053 344° North 99 114 4,100  Level Miami Center
Sat 03:59:42 PM 27.0719 -80.2153 343° North 102 117 4,100  Level Miami Center
Sat 04:00:44 PM 27.0994 -80.2261 341° North 105 121 4,100  Level Miami Center
Sat 04:01:46 PM 27.1289 -80.2364 343° North 106 122 4,100  Level Miami Center
Sat 04:02:48 PM 27.1600 -80.2486 341° North 107 123 4,100 -48 Level Miami Center
Sat 04:03:50 PM 27.1922 -80.2606 342° North 113 130 4,000  Descending Miami Center
Sat 04:04:52 PM 27.2200 -80.2711 341° North 106 122 4,100  Climbing Miami Center
Sat 04:05:54 PM 27.2417 -80.3003 310° West 114 131 4,000 -48 Descending Miami Center
Sat 04:06:56 PM 27.2633 -80.3275 312° West 113 130 4,000  Level Miami Center
Sat 04:07:58 PM 27.2819 -80.3525 310° West 111 128 4,000 48 Level Miami Center
Sat 04:09:01 PM 27.3019 -80.3786 311° West 106 122 4,100 48 Climbing Miami Center
Sat 04:10:03 PM 27.3208 -80.4064 307° West 106 122 4,100 -97 Level Miami Center
Sat 04:11:05 PM 27.3419 -80.4361 309° West 113 130 3,900 -532 Descending Miami Center
Sat 04:12:07 PM 27.3647 -80.4675 309° West 121 139 3,000 -435 Descending Miami Center
Sat 04:13:09 PM 27.3883 -80.4964 313° West 122 140 3,000 48 Level Miami Center
Sat 04:14:11 PM 27.4097 -80.5244 311° West 115 132 3,100 48 Climbing Miami Center
Sat 04:15:13 PM 27.4350 -80.5397 332° Northwest 110 127 3,100  Level Miami Center
Sat 04:16:15 PM 27.4650 -80.5575 332° Northwest 114 131 3,100 -48 Level Miami Center
Sat 04:17:18 PM 27.4942 -80.5656 346° North 111 128 3,000 -288 Descending Miami Center
Sat 04:18:20 PM 27.4983 -80.5306 82° East 109 125 2,500 -435 Descending Miami Center
Sat 04:19:22 PM 27.4978 -80.5042 91° East 88 101 2,100 -387 Descending Miami Center
Sat 04:20:24 PM 27.4981 -80.4794 89° East 80 92 1,700 -387 Descending Miami Center
Sat 04:21:26 PM 27.4975 -80.4533 91° East 80 92 1,300 -435 Descending Miami Center
Sat 04:22:28 PM 27.4972 -80.4283 91° East 77 89 800 -387 Descending Miami Center
Sat 04:23:30 PM 27.4972 -80.4044 90° East 78 90 500 -192 Descending Miami Center
Sat 04:24:33 PM 27.4972 -80.3781 90° East 79 91 400 288 Descending Miami Center
Sat 04:25:35 PM 27.4961 -80.3508 93° East 82 94 1,100 581 Climbing Miami Center
Sat 04:26:37 PM 27.4942 -80.3272 95° East 77 89 1,600 484 Climbing Miami Center
Sat 04:27:39 PM 27.4903 -80.3022 100° East 77 89 2,100 435 Climbing Miami Center
Sat 04:28:41 PM 27.4869 -80.2758 98° East 79 91 2,500 435 Climbing Miami Center
Sat 04:29:43 PM 27.4839 -80.2483 97° East 85 98 3,000 290 Climbing Miami Center
Sat 04:30:45 PM 27.4997 -80.2597 327° Northwest 102 117 3,100 48 Climbing Miami Center
Sat 04:31:48 PM 27.5094 -80.2925 288° West 110 127 3,100 -48 Level Miami Center
Sat 04:32:50 PM 27.5219 -80.3306 290° West 120 138 3,000  Descending Miami Center
Sat 04:33:52 PM 27.5344 -80.3692 290° West 123 142 3,100 48 Climbing Miami Center
Sat 04:34:54 PM 27.5475 -80.4086 290° West 126 145 3,100  Level Miami Center
Sat 04:35:56 PM 27.5606 -80.4478 291° West 126 145 3,100  Level Miami Center
Sat 04:36:58 PM 27.5733 -80.4858 291° West 126 145 3,100  Level Miami Center
Sat 04:38:01 PM 27.5897 -80.5219 297° West 125 144 3,100 -48 Level Miami Center
Sat 04:39:03 PM 27.6119 -80.5533 309° West 124 143 3,000  Descending Miami Center
Sat 04:40:05 PM 27.6339 -80.5825 310° West 121 139 3,100 48 Climbing Miami Center
Sat 04:41:07 PM 27.6544 -80.6094 311° West 120 138 3,100 -48 Level Miami Center
Sat 04:42:09 PM 27.6767 -80.6386 311° West 119 137 3,000  Descending Miami Center
Sat 04:43:11 PM 27.7050 -80.6544 334° Northwest 114 131 3,100 -145 Climbing Miami Center
Sat 04:44:13 PM 27.7239 -80.6358 41° Northeast 117 135 2,700 -726 Descending Miami Center
Sat 04:45:15 PM 27.7183 -80.6011 100° East 112 129 1,600 -629 Descending Miami Center
Sat 04:46:17 PM 27.7067 -80.5731 115° Southeast 97 112 1,400 -48 Descending Miami Center
Sat 04:47:20 PM 27.6978 -80.5439 109° East 96 110 1,500 -48 Climbing Miami Center
Sat 04:48:22 PM 27.6864 -80.5131 113° Southeast 106 122 1,300 -145 Descending Miami Center
Sat 04:49:24 PM 27.6761 -80.4836 112° Southeast 101 116 1,200 -290 Descending Miami Center
Sat 04:50:26 PM 27.6681 -80.4594 111° Southeast 82 94 700 -387 Descending Miami Center
Sat 04:51:28 PM 27.6589 -80.4328 111° Southeast 84 97 400 -290 Descending Miami Center

Login

Don't have an account? Register now (free) for customized features, flight alerts, and more!